Lodi Township, Michigan
Current Conditions -  °F | °C
As of 3:53 AM on Saturday 22 Nov 2014 (Local Time) from KARB Reporting Station
Overcast Overcast  
Wind Chill: 14°   Ceiling: 3300
Heat Index: 23°   Visibility: 10mi
Dew Point: 13°   Wind: 8mph
Humidity: 65%   Direction: 200°SSW
Pressure: 30.21"   Gusts: NA
Location:  42.2601°N, 83.8448°W
Report Text: KARB 220853Z AUTO 20007KT 10SM BKN033 OVC046 M05/M11 A3021 RMK AO2 SLP244 T10501106 56026
Loading
Personal Weather Stations






























Interactive Weather Map New forecast layout! Learn more

10-Day Weather Forecast

Advertisements
Track Severe Weather on mobile